This is the latest recevied weather packets stored in our database for station/object K7LDN-13. If no packets are shown the sender has not sent any weather packets the latest 10 day(s).
| Time | Temp. | Humidity | Pressure | Rain* | Wind** | Luminosity | Snow |
|---|---|---|---|---|---|---|---|
| 1777562963 | 11.67° C | 49% | 1022.2 hPa | 0 mm | - | 463 W/m² | - |
| 1777562660 | 12.22° C | 49% | 1022.2 hPa | 0 mm | - | 448 W/m² | - |
| 1777562355 | 11.11° C | 52% | 1022.4 hPa | 0 mm | - | 432 W/m² | - |
| 1777562050 | 11.67° C | 48% | 1022.2 hPa | 0 mm | - | 421 W/m² | - |
| 1777561748 | 10.56° C | 50% | 1022.2 hPa | 0 mm | - | 408 W/m² | - |
| 1777561443 | 11.67° C | 48% | 1022.4 hPa | 0 mm | - | 393 W/m² | - |
| 1777561138 | 11.67° C | 51% | 1022.5 hPa | 0 mm | - | 379 W/m² | - |
| 1777560833 | 10.56° C | 52% | 1022.6 hPa | 0 mm | - | 364 W/m² | - |
| 1777560531 | 11.11° C | 49% | 1022.5 hPa | 0 mm | - | 350 W/m² | - |
| 1777560229 | 11.11° C | 51% | 1022.4 hPa | 0 mm | - | 337 W/m² | - |
| 1777559926 | 11.11° C | 50% | 1022.5 hPa | 0 mm | - | 322 W/m² | - |
| 1777559620 | 10.56° C | 50% | 1022.5 hPa | 0 mm | - | 307 W/m² | - |
| 1777559319 | 10.56° C | 50% | 1022.5 hPa | 0 mm | - | 291 W/m² | - |
| 1777559015 | 10.56° C | 50% | 1022.5 hPa | 0 mm | - | 275 W/m² | - |
| 1777558710 | 10.56° C | 50% | 1022.5 hPa | 0 mm | - | 254 W/m² | - |
| 1777558407 | 11.67° C | 47% | 1022.6 hPa | 0 mm | - | 225 W/m² | - |
| 1777558103 | 10.56° C | 50% | 1022.6 hPa | 0 mm | - | 203 W/m² | - |
| 1777557800 | 10.56° C | 49% | 1022.5 hPa | 0 mm | - | 188 W/m² | - |
| 1777557496 | 10.56° C | 48% | 1022.5 hPa | 0 mm | - | 175 W/m² | - |
| 1777557193 | 10.56° C | 49% | 1022.4 hPa | 0 mm | - | 160 W/m² | - |
| 1777556889 | 10° C | 51% | 1022.5 hPa | 0 mm | - | 144 W/m² | - |
| 1777556584 | 10° C | 50% | 1022.1 hPa | 0 mm | - | 128 W/m² | - |
| 1777556284 | 10.56° C | 50% | 1022.2 hPa | 0 mm | - | 117 W/m² | - |
| 1777555981 | 9.44° C | 56% | 1022.5 hPa | 0 mm | - | 108 W/m² | - |
| 1777555675 | 7.78° C | 59% | 1022.4 hPa | 0 mm | - | 95 W/m² | - |
* Rain latest hour (hover to see other rain measurements)
** Current wind speed in m/s (hover to see current wind gust speed)